Map

Track Data

SID SEASON NUMBER BASIN SUBBASIN NAME ISO_TIME NATURE LAT LON WMO_WIND WMO_PRES WMO_AGENCY TRACK_TYPE DIST2LAND LANDFALL IFLAG USA_AGENCY USA_ATCF_ID USA_LAT USA_LON USA_RECORD USA_STATUS USA_WIND USA_PRES USA_SSHS USA_R34_NE USA_R34_SE USA_R34_SW USA_R34_NW USA_R50_NE USA_R50_SE USA_R50_SW USA_R50_NW USA_R64_NE USA_R64_SE USA_R64_SW USA_R64_NW USA_POCI USA_ROCI USA_RMW USA_EYE TOKYO_LAT TOKYO_LON TOKYO_GRADE TOKYO_WIND TOKYO_PRES TOKYO_R50_DIR TOKYO_R50_LONG TOKYO_R50_SHORT TOKYO_R30_DIR TOKYO_R30_LONG TOKYO_R30_SHORT TOKYO_LAND CMA_LAT CMA_LON CMA_CAT CMA_WIND CMA_PRES HKO_LAT HKO_LON HKO_CAT HKO_WIND HKO_PRES NEWDELHI_LAT NEWDELHI_LON NEWDELHI_GRADE NEWDELHI_WIND NEWDELHI_PRES NEWDELHI_CI NEWDELHI_DP NEWDELHI_POCI REUNION_LAT REUNION_LON REUNION_TYPE REUNION_WIND REUNION_PRES REUNION_TNUM REUNION_CI REUNION_RMW REUNION_R34_NE REUNION_R34_SE REUNION_R34_SW REUNION_R34_NW REUNION_R50_NE REUNION_R50_SE REUNION_R50_SW REUNION_R50_NW REUNION_R64_NE REUNION_R64_SE REUNION_R64_SW REUNION_R64_NW BOM_LAT BOM_LON BOM_TYPE BOM_WIND BOM_PRES BOM_TNUM BOM_CI BOM_RMW BOM_R34_NE BOM_R34_SE BOM_R34_SW BOM_R34_NW BOM_R50_NE BOM_R50_SE BOM_R50_SW BOM_R50_NW BOM_R64_NE BOM_R64_SE BOM_R64_SW BOM_R64_NW BOM_ROCI BOM_POCI BOM_EYE BOM_POS_METHOD BOM_PRES_METHOD NADI_LAT NADI_LON NADI_CAT NADI_WIND NADI_PRES WELLINGTON_LAT WELLINGTON_LON WELLINGTON_WIND WELLINGTON_PRES DS824_LAT DS824_LON DS824_STAGE DS824_WIND DS824_PRES TD9636_LAT TD9636_LON TD9636_STAGE TD9636_WIND TD9636_PRES TD9635_LAT TD9635_LON TD9635_WIND TD9635_PRES TD9635_ROCI NEUMANN_LAT NEUMANN_LON NEUMANN_CLASS NEUMANN_WIND NEUMANN_PRES MLC_LAT MLC_LON MLC_CLASS MLC_WIND MLC_PRES USA_GUST BOM_GUST BOM_GUST_PER REUNION_GUST REUNION_GUST_PER USA_SEAHGT USA_SEARAD_NE USA_SEARAD_SE USA_SEARAD_SW USA_SEARAD_NW STORM_SPEED STORM_DIR
1949245N20152 1949 64 WP MM MADELINE 1949-09-02 00:00:00 TS 20.2200 152.240 main 2033 1964 O_O______OOO__ jtwc_wp WP111949 20.0000 152.300 50 0 21.1000 152.000 1 29 1000 20.0000 152.300 TC 50 20.0000 152.300 2 50 20.0000 152.300 50 999 180 13 318
1949245N20152 1949 64 WP MM MADELINE 1949-09-02 03:00:00 TS 20.6899 151.791 main 1964 1894 P_P______PPP__ WP111949 20.4753 151.743 52 0 21.4900 152.000 1 33 997 20.4753 151.743 TC 52 20.5333 151.728 2 52 20.4753 151.743 52 997 180 13 320
1949245N20152 1949 64 WP MM MADELINE 1949-09-02 06:00:00 TS 21.1965 151.357 main 1894 1825 O_O______OPO__ jtwc_wp WP111949 21.0000 151.200 55 0 21.9000 152.000 2 38 995 21.0000 151.200 TC 55 21.0823 151.183 2 55 21.0000 151.200 55 996 180 13 324
1949245N20152 1949 64 WP MM MADELINE 1949-09-02 09:00:00 TS 21.7690 150.955 main 1816 1737 P_P______PPP__ WP111949 21.6125 150.698 57 0 22.3424 151.987 2 43 992 21.6125 150.698 TC 57 21.6651 150.697 2 57 21.6125 150.698 57 993 150 14 330
1949245N20152 1949 64 WP MM MADELINE 1949-09-02 12:00:00 TS 22.4000 150.620 main 1737 1669 O_O______OOO__ jtwc_wp WP111949 22.3000 150.300 60 0 22.8000 151.900 3 48 990 22.3000 150.300 TC 60 22.3000 150.300 2 60 22.3000 150.300 60 991 120 14 338
1949245N20152 1949 64 WP MM MADELINE 1949-09-02 15:00:00 TS 23.0646 150.378 main 1660 1593 P_P______PPP__ WP111949 23.0348 150.047 60 0 23.2197 151.732 3 53 987 23.0348 150.047 TC 60 22.9988 150.016 2 57 23.0348 150.047 60 989 120 14 344
1949245N20152 1949 64 WP MM MADELINE 1949-09-02 18:00:00 TS 23.7693 150.187 main 1584 1508 O_O______OPO__ jtwc_wp WP111949 23.8000 149.900 60 0 23.7000 151.400 3 58 984 23.8000 149.900 TC 60 23.7466 149.834 2 55 23.8000 149.900 60 987 120 15 346
1949245N20152 1949 64 WP MM MADELINE 1949-09-02 21:00:00 TS 24.4968 149.983 main 1508 1433 P_P______PPP__ WP111949 24.5425 149.777 55 0 24.3354 150.846 3 58 983 24.5425 149.777 TC 55 24.5211 149.735 2 52 24.5425 149.777 55 985 150 15 347
1949245N20152 1949 64 WP MM MADELINE 1949-09-03 00:00:00 TS 25.2400 149.800 main 1433 1358 O_O______OOO__ jtwc_wp WP111949 25.3000 149.700 50 0 25.0000 150.200 3 58 983 25.3000 149.700 TC 50 25.3000 149.700 2 50 25.3000 149.700 50 983 180 15 348
1949245N20152 1949 64 WP MM MADELINE 1949-09-03 03:00:00 TS 25.9808 149.629 main 1350 1283 P_P______PPP__ WP111949 26.1075 149.613 50 0 25.5650 149.612 3 58 982 26.1075 149.613 TC 50 26.0167 149.694 2 51 26.1075 149.613 50 981 180 15 351
1949245N20152 1949 64 WP MM MADELINE 1949-09-03 06:00:00 TS 26.7077 149.529 main 1283 1232 O_O______OPO__ jtwc_wp WP111949 26.9000 149.600 50 0 26.1000 149.100 3 58 982 26.9000 149.600 TC 50 26.7386 149.744 2 52 26.9000 149.600 50 980 180 14 357
1949245N20152 1949 64 WP MM MADELINE 1949-09-03 09:00:00 TS 27.3777 149.544 main 1224 1182 P_P______PPP__ WP111949 27.5851 149.734 52 0 26.6423 148.697 3 58 981 27.5851 149.734 TC 52 27.4912 149.822 2 53 27.5851 149.734 52 978 180 14 3
1949245N20152 1949 64 WP MM MADELINE 1949-09-03 12:00:00 TS 28.0800 149.600 main 1174 1113 O_O______OOO__ jtwc_wp WP111949 28.3000 149.900 55 0 27.2000 148.400 3 58 981 28.3000 149.900 TC 55 28.3000 149.900 2 55 28.3000 149.900 55 976 180 15 2
1949245N20152 1949 64 WP MM MADELINE 1949-09-03 15:00:00 TS 28.9037 149.617 main 1113 1051 P_P______PPP__ WP111949 29.1775 149.987 60 0 27.7924 148.147 3 58 980 29.1775 149.987 TC 60 29.1935 149.974 2 60 29.1775 149.987 60 975 180 17 0
1949245N20152 1949 64 WP MM MADELINE 1949-09-03 18:00:00 TS 29.7600 149.600 main 1044 986 O_O______OOO__ jtwc_wp WP111949 30.1000 150.000 65 1 28.4000 148.000 3 58 980 30.1000 150.000 TC 65 30.1000 150.000 3 65 30.1000 150.000 65 974 180 17 357
1949245N20152 1949 64 WP MM MADELINE 1949-09-03 21:00:00 TS 30.5770 149.514 main 980 926 P_P______PPP__ WP111949 30.9800 149.908 70 1 28.9699 147.933 3 58 980 30.9800 149.908 TC 70 30.9753 149.911 3 70 30.9800 149.908 70 973 210 16 355
1949245N20152 1949 64 WP MM MADELINE 1949-09-04 00:00:00 TS 31.3600 149.440 main 920 879 O_O______OOO__ jtwc_wp WP111949 31.8000 149.800 75 1 29.6000 148.000 3 58 980 31.8000 149.800 TC 75 31.8000 149.800 4 75 31.8000 149.800 75 972 240 15 358
1949245N20152 1949 64 WP MM MADELINE 1949-09-04 03:00:00 TS 32.1017 149.450 main 879 856 P_P______PPP__ WP111949 32.5299 149.770 72 1 30.3698 148.175 3 58 980 32.5299 149.770 TC 72 32.5491 149.762 4 72 32.5299 149.770 72 973 240 14 3
1949245N20152 1949 64 WP MM MADELINE 1949-09-04 06:00:00 TS 32.7844 149.526 main 852 835 O_O______OPO__ jtwc_wp WP111949 33.2000 149.800 70 1 31.2000 148.500 3 58 980 33.2000 149.800 TC 70 33.2347 149.799 4 70 33.2000 149.800 70 975 240 14 7
1949245N20152 1949 64 WP MM MADELINE 1949-09-04 09:00:00 TS 33.4686 149.654 main 839 829 P_P______PPP__ WP111949 33.8798 149.848 67 1 32.0301 148.955 3 58 980 33.8798 149.848 TC 67 33.8780 149.886 4 67 33.8798 149.848 67 978 210 13 13
1949245N20152 1949 64 WP MM MADELINE 1949-09-04 12:00:00 TS 34.0143 149.857 main 840 837 O_O______OOO__ jtwc_wp WP111949 34.5000 150.000 65 1 32.8000 149.500 3 58 980 34.5000 150.000 TC 65 34.5000 150.000 4 65 34.5000 150.000 65 981 180 10 26
1949245N20152 1949 64 WP MM MADELINE 1949-09-04 15:00:00 TS 34.3885 150.188 main 856 856 P_P______P_P__ WP111949 35.0279 150.304 62 0 33.4294 150.014 3 58 980 35.0279 150.304 TC 62 4 35.0279 150.304 62 984 180 9 46
1949245N20152 1949 64 WP MM MADELINE 1949-09-04 18:00:00 TS 34.6429 150.643 main 888 888 O_O______O_O__ jtwc_wp WP111949 35.5000 150.700 60 0 34.0000 150.600 3 58 980 35.5000 150.700 TC 60 4 35.5000 150.700 60 988 180 9 79
1949245N20152 1949 64 WP MM MADELINE 1949-09-04 21:00:00 TS 34.5696 151.299 main 950 950 __P___________ WP111949 -1 34.5696 151.299 3 58 980 TC 4 13 65
1949245N20152 1949 64 WP MM MADELINE 1949-09-05 00:00:00 TS 35.2000 152.100 main 1002 1002 __O___________ -1 35.2000 152.100 3 58 980 20 44
1949245N20152 1949 64 WP MM MADELINE 1949-09-05 03:00:00 TS 35.9698 152.978 main 1025 1001 __P___________ -1 35.9698 152.978 3 58 980 22 42
1949245N20152 1949 64 WP MM MADELINE 1949-09-05 06:00:00 TS 36.8000 153.900 main 1007 981 __O___________ -1 36.8000 153.900 3 58 980 22 41
1949245N20152 1949 64 WP MM MADELINE 1949-09-05 09:00:00 TS 37.6134 154.765 main 984 936 __P___________ -1 37.6134 154.765 3 58 980 21 42
1949245N20152 1949 64 WP MM MADELINE 1949-09-05 12:00:00 TS 38.4000 155.700 main 940 924 __O___________ -1 38.4000 155.700 3 58 980 21 46
1949245N20152 1949 64 WP MM MADELINE 1949-09-05 15:00:00 TS 39.0582 156.702 main 921 921 __P___________ -1 39.0582 156.702 3 58 980 23 52
1949245N20152 1949 64 WP MM MADELINE 1949-09-05 18:00:00 TS 39.8000 158.000 main 929 926 __O___________ -1 39.8000 158.000 3 58 980 30 53
1949245N20152 1949 64 WP MM MADELINE 1949-09-05 21:00:00 TS 40.8203 159.790 main 957 956 __P___________ -1 40.8203 159.790 3 58 980 36 55
1949245N20152 1949 64 WP MM MADELINE 1949-09-06 00:00:00 TS 41.9000 161.900 main 1027 1016 __O___________ -1 41.9000 161.900 3 58 980 38 58
1949245N20152 1949 64 WP MM MADELINE 1949-09-06 03:00:00 TS 42.8612 164.130 main 1022 1022 __P___________ -1 42.8612 164.130 3 58 980 37 61
1949245N20152 1949 64 WP MM MADELINE 1949-09-06 06:00:00 TS 43.7000 166.300 main 1065 1065 __O___________ -1 43.7000 166.300 3 58 980 33 64
1949245N20152 1949 64 WP MM MADELINE 1949-09-06 09:00:00 TS 44.3082 168.176 main 1111 1111 __P___________ -1 44.3082 168.176 3 58 980 28 63
1949245N20152 1949 64 WP MM MADELINE 1949-09-06 12:00:00 TS 45.0000 169.800 main 1139 1116 __O___________ -1 45.0000 169.800 3 58 980 28 51
1949245N20152 1949 64 WP MM MADELINE 1949-09-06 15:00:00 TS 46.0632 171.277 main 1115 1093 __P___________ -1 46.0632 171.277 3 58 980 30 41
1949245N20152 1949 64 WP MM MADELINE 1949-09-06 18:00:00 TS 47.3000 172.700 main 1097 1076 __O___________ -1 47.3000 172.700 3 58 980 33 39
1949245N20152 1949 64 WP MM MADELINE 1949-09-06 21:00:00 TS 48.5984 174.337 main 1074 1071 __P___________ -1 48.5984 174.337 3 63 979 32 41
1949245N20152 1949 64 WP MM MADELINE 1949-09-07 00:00:00 TS 49.7000 175.900 main 1084 1002 __O___________ -1 49.7000 175.900 4 68 978 25 47
1949245N20152 1949 64 WP MM MADELINE 1949-09-07 03:00:00 TS 50.3325 177.180 main 995 920 __P___________ -1 50.3325 177.180 4 68 976 18 56
1949245N20152 1949 64 WP MM MADELINE 1949-09-07 06:00:00 TS 50.7000 178.200 main 914 850 __O___________ -1 50.7000 178.200 4 68 975 14 60
1949245N20152 1949 64 WP MM MADELINE 1949-09-07 09:00:00 TS 51.0064 179.043 main 850 787 __P___________ -1 51.0064 179.043 4 72 974 12 59
1949245N20152 1949 64 WP MM MADELINE 1949-09-07 12:00:00 TS 51.3000 179.800 main 787 __O___________ -1 51.3000 179.800 4 77 973 11 58

Digital Typhoon Data and Search

About IBTrACS Database

This database is a web-friendly format of International Best Track Archive for Climate Stewardship (IBTrACS), a global best track data archive curated by NOAA dating back to 1842.

Updated: 2021-12-03